sensor_id;sensor_type;location;lat;lon;timestamp;P1;durP1;ratioP1;P2;durP2;ratioP2
22606;SDS011;11470;20.968;105.834;2024-03-22T00:00:19;49.67;;;30.95;;
22606;SDS011;11470;20.968;105.834;2024-03-22T00:05:22;61.53;;;37.65;;
22606;SDS011;11470;20.968;105.834;2024-03-22T00:10:26;75.80;;;43.35;;
22606;SDS011;11470;20.968;105.834;2024-03-22T00:15:29;40.22;;;27.05;;
22606;SDS011;11470;20.968;105.834;2024-03-22T00:20:33;79.18;;;43.22;;
22606;SDS011;11470;20.968;105.834;2024-03-22T00:25:37;82.30;;;45.65;;
22606;SDS011;11470;20.968;105.834;2024-03-22T00:30:41;101.25;;;56.13;;
22606;SDS011;11470;20.968;105.834;2024-03-22T00:35:44;62.25;;;39.58;;
22606;SDS011;11470;20.968;105.834;2024-03-22T00:40:48;53.03;;;32.22;;
22606;SDS011;11470;20.968;105.834;2024-03-22T00:45:52;66.03;;;38.42;;
22606;SDS011;11470;20.968;105.834;2024-03-22T00:50:56;49.35;;;31.83;;
22606;SDS011;11470;20.968;105.834;2024-03-22T00:56:02;84.50;;;47.67;;
22606;SDS011;11470;20.968;105.834;2024-03-22T01:01:05;54.80;;;32.15;;
22606;SDS011;11470;20.968;105.834;2024-03-22T01:06:09;63.03;;;34.97;;
22606;SDS011;11470;20.968;105.834;2024-03-22T01:11:12;45.55;;;28.95;;
22606;SDS011;11470;20.968;105.834;2024-03-22T01:16:16;63.95;;;35.95;;
22606;SDS011;11470;20.968;105.834;2024-03-22T01:21:19;61.30;;;37.38;;
22606;SDS011;11470;20.968;105.834;2024-03-22T01:26:27;77.35;;;42.35;;
22606;SDS011;11470;20.968;105.834;2024-03-22T01:31:32;118.00;;;59.53;;
22606;SDS011;11470;20.968;105.834;2024-03-22T01:36:37;47.92;;;30.10;;
22606;SDS011;11470;20.968;105.834;2024-03-22T01:41:40;67.78;;;39.70;;
22606;SDS011;11470;20.968;105.834;2024-03-22T01:46:44;75.15;;;43.15;;
22606;SDS011;11470;20.968;105.834;2024-03-22T01:51:49;77.60;;;44.07;;
22606;SDS011;11470;20.968;105.834;2024-03-22T01:56:53;75.18;;;43.20;;
22606;SDS011;11470;20.968;105.834;2024-03-22T02:01:57;78.20;;;41.63;;
22606;SDS011;11470;20.968;105.834;2024-03-22T02:07:00;72.05;;;38.80;;
22606;SDS011;11470;20.968;105.834;2024-03-22T02:12:05;62.80;;;36.80;;
22606;SDS011;11470;20.968;105.834;2024-03-22T02:17:09;85.28;;;44.50;;
22606;SDS011;11470;20.968;105.834;2024-03-22T02:22:13;107.32;;;54.80;;
22606;SDS011;11470;20.968;105.834;2024-03-22T02:27:16;63.17;;;36.47;;
22606;SDS011;11470;20.968;105.834;2024-03-22T02:32:20;93.90;;;49.03;;
22606;SDS011;11470;20.968;105.834;2024-03-22T02:37:23;70.50;;;35.85;;
22606;SDS011;11470;20.968;105.834;2024-03-22T02:42:27;90.63;;;47.28;;
22606;SDS011;11470;20.968;105.834;2024-03-22T02:47:30;90.78;;;48.17;;
22606;SDS011;11470;20.968;105.834;2024-03-22T02:52:35;79.40;;;38.00;;
22606;SDS011;11470;20.968;105.834;2024-03-22T02:57:38;80.35;;;45.30;;
22606;SDS011;11470;20.968;105.834;2024-03-22T03:02:41;65.18;;;35.38;;
22606;SDS011;11470;20.968;105.834;2024-03-22T03:07:45;70.72;;;35.42;;
22606;SDS011;11470;20.968;105.834;2024-03-22T03:12:49;70.32;;;40.22;;
22606;SDS011;11470;20.968;105.834;2024-03-22T03:17:52;79.07;;;40.95;;
22606;SDS011;11470;20.968;105.834;2024-03-22T03:22:55;71.13;;;40.83;;
22606;SDS011;11470;20.968;105.834;2024-03-22T03:28:02;89.32;;;46.63;;
22606;SDS011;11470;20.968;105.834;2024-03-22T03:33:08;74.35;;;40.53;;
22606;SDS011;11470;20.968;105.834;2024-03-22T03:38:12;77.78;;;37.83;;
22606;SDS011;11470;20.968;105.834;2024-03-22T03:43:15;67.15;;;38.47;;
22606;SDS011;11470;20.968;105.834;2024-03-22T03:48:19;76.45;;;41.70;;
22606;SDS011;11470;20.968;105.834;2024-03-22T03:53:22;79.30;;;41.00;;
22606;SDS011;11470;20.968;105.834;2024-03-22T03:58:26;103.88;;;55.00;;
22606;SDS011;11470;20.968;105.834;2024-03-22T04:03:29;82.80;;;46.63;;
22606;SDS011;11470;20.968;105.834;2024-03-22T04:08:32;86.07;;;49.45;;
22606;SDS011;11470;20.968;105.834;2024-03-22T04:13:36;71.03;;;37.85;;
22606;SDS011;11470;20.968;105.834;2024-03-22T04:18:39;76.72;;;43.08;;
22606;SDS011;11470;20.968;105.834;2024-03-22T04:23:43;89.68;;;37.05;;
22606;SDS011;11470;20.968;105.834;2024-03-22T04:28:46;62.83;;;31.80;;
22606;SDS011;11470;20.968;105.834;2024-03-22T04:33:50;50.10;;;20.85;;
22606;SDS011;11470;20.968;105.834;2024-03-22T04:38:53;81.82;;;39.90;;
22606;SDS011;11470;20.968;105.834;2024-03-22T04:43:57;100.65;;;49.78;;
22606;SDS011;11470;20.968;105.834;2024-03-22T04:49:00;97.60;;;49.60;;
22606;SDS011;11470;20.968;105.834;2024-03-22T04:54:03;95.95;;;45.20;;
22606;SDS011;11470;20.968;105.834;2024-03-22T04:59:07;101.68;;;50.67;;
22606;SDS011;11470;20.968;105.834;2024-03-22T05:04:10;66.47;;;29.42;;
22606;SDS011;11470;20.968;105.834;2024-03-22T05:09:14;95.38;;;46.00;;
22606;SDS011;11470;20.968;105.834;2024-03-22T05:14:18;67.32;;;26.73;;
22606;SDS011;11470;20.968;105.834;2024-03-22T05:19:23;49.35;;;21.88;;
22606;SDS011;11470;20.968;105.834;2024-03-22T05:24:26;76.03;;;34.28;;
22606;SDS011;11470;20.968;105.834;2024-03-22T05:29:30;96.00;;;47.00;;
22606;SDS011;11470;20.968;105.834;2024-03-22T05:34:34;81.32;;;37.95;;
22606;SDS011;11470;20.968;105.834;2024-03-22T05:39:38;79.30;;;38.90;;
22606;SDS011;11470;20.968;105.834;2024-03-22T05:44:43;98.05;;;49.80;;
22606;SDS011;11470;20.968;105.834;2024-03-22T05:49:47;74.10;;;36.07;;
22606;SDS011;11470;20.968;105.834;2024-03-22T05:54:51;61.88;;;26.27;;
22606;SDS011;11470;20.968;105.834;2024-03-22T05:59:54;57.33;;;23.33;;
22606;SDS011;11470;20.968;105.834;2024-03-22T06:04:58;85.85;;;45.08;;
22606;SDS011;11470;20.968;105.834;2024-03-22T06:10:02;96.38;;;48.15;;
22606;SDS011;11470;20.968;105.834;2024-03-22T06:15:09;82.45;;;45.88;;
22606;SDS011;11470;20.968;105.834;2024-03-22T06:20:30;92.50;;;49.13;;
22606;SDS011;11470;20.968;105.834;2024-03-22T06:25:33;88.78;;;47.45;;
22606;SDS011;11470;20.968;105.834;2024-03-22T06:30:37;78.10;;;43.55;;
22606;SDS011;11470;20.968;105.834;2024-03-22T06:35:41;85.97;;;47.58;;
22606;SDS011;11470;20.968;105.834;2024-03-22T06:40:45;95.50;;;52.13;;
22606;SDS011;11470;20.968;105.834;2024-03-22T06:45:48;105.18;;;54.70;;
22606;SDS011;11470;20.968;105.834;2024-03-22T06:50:52;110.80;;;56.53;;
22606;SDS011;11470;20.968;105.834;2024-03-22T06:55:55;100.18;;;55.28;;
22606;SDS011;11470;20.968;105.834;2024-03-22T07:00:59;101.28;;;52.80;;
22606;SDS011;11470;20.968;105.834;2024-03-22T07:06:02;99.55;;;55.65;;
22606;SDS011;11470;20.968;105.834;2024-03-22T07:11:07;78.32;;;46.80;;
22606;SDS011;11470;20.968;105.834;2024-03-22T07:16:11;112.35;;;63.85;;
22606;SDS011;11470;20.968;105.834;2024-03-22T07:21:15;110.15;;;64.55;;
22606;SDS011;11470;20.968;105.834;2024-03-22T07:26:19;98.00;;;57.78;;
22606;SDS011;11470;20.968;105.834;2024-03-22T07:31:22;104.60;;;58.17;;
22606;SDS011;11470;20.968;105.834;2024-03-22T07:36:26;96.35;;;59.50;;
22606;SDS011;11470;20.968;105.834;2024-03-22T07:41:29;92.93;;;52.88;;
22606;SDS011;11470;20.968;105.834;2024-03-22T07:46:34;100.97;;;58.45;;
22606;SDS011;11470;20.968;105.834;2024-03-22T07:51:38;92.07;;;52.17;;
22606;SDS011;11470;20.968;105.834;2024-03-22T07:56:42;98.22;;;56.78;;
22606;SDS011;11470;20.968;105.834;2024-03-22T08:01:45;93.45;;;55.83;;
22606;SDS011;11470;20.968;105.834;2024-03-22T08:06:53;85.32;;;52.03;;
22606;SDS011;11470;20.968;105.834;2024-03-22T08:11:56;92.47;;;52.53;;
22606;SDS011;11470;20.968;105.834;2024-03-22T08:17:00;68.32;;;40.05;;
22606;SDS011;11470;20.968;105.834;2024-03-22T08:22:03;86.50;;;41.00;;
22606;SDS011;11470;20.968;105.834;2024-03-22T08:27:07;154.82;;;77.30;;
22606;SDS011;11470;20.968;105.834;2024-03-22T08:32:10;80.60;;;40.95;;
22606;SDS011;11470;20.968;105.834;2024-03-22T08:37:14;90.15;;;43.15;;
22606;SDS011;11470;20.968;105.834;2024-03-22T08:42:18;96.43;;;51.42;;
22606;SDS011;11470;20.968;105.834;2024-03-22T08:47:21;110.13;;;56.60;;
22606;SDS011;11470;20.968;105.834;2024-03-22T08:52:25;87.10;;;43.38;;
22606;SDS011;11470;20.968;105.834;2024-03-22T08:57:28;107.35;;;58.08;;
22606;SDS011;11470;20.968;105.834;2024-03-22T09:02:32;120.85;;;66.68;;
22606;SDS011;11470;20.968;105.834;2024-03-22T09:07:36;168.68;;;93.28;;
22606;SDS011;11470;20.968;105.834;2024-03-22T09:12:39;176.43;;;93.45;;
22606;SDS011;11470;20.968;105.834;2024-03-22T09:17:43;147.48;;;75.70;;
22606;SDS011;11470;20.968;105.834;2024-03-22T09:22:46;127.72;;;69.35;;
22606;SDS011;11470;20.968;105.834;2024-03-22T09:27:51;126.78;;;70.72;;
22606;SDS011;11470;20.968;105.834;2024-03-22T09:32:54;145.60;;;75.60;;
22606;SDS011;11470;20.968;105.834;2024-03-22T09:37:58;98.95;;;51.50;;
22606;SDS011;11470;20.968;105.834;2024-03-22T09:43:01;168.88;;;89.38;;
22606;SDS011;11470;20.968;105.834;2024-03-22T09:48:06;213.32;;;108.97;;
22606;SDS011;11470;20.968;105.834;2024-03-22T09:53:10;160.95;;;84.18;;
22606;SDS011;11470;20.968;105.834;2024-03-22T09:58:23;140.95;;;75.40;;
22606;SDS011;11470;20.968;105.834;2024-03-22T10:03:31;136.27;;;73.63;;
22606;SDS011;11470;20.968;105.834;2024-03-22T10:08:35;212.88;;;106.60;;
22606;SDS011;11470;20.968;105.834;2024-03-22T10:13:39;223.15;;;112.00;;
22606;SDS011;11470;20.968;105.834;2024-03-22T10:18:47;198.00;;;103.25;;
22606;SDS011;11470;20.968;105.834;2024-03-22T10:23:50;147.32;;;77.35;;
22606;SDS011;11470;20.968;105.834;2024-03-22T10:28:56;187.30;;;99.88;;
22606;SDS011;11470;20.968;105.834;2024-03-22T10:34:00;175.80;;;95.65;;
22606;SDS011;11470;20.968;105.834;2024-03-22T10:39:09;138.15;;;74.38;;
22606;SDS011;11470;20.968;105.834;2024-03-22T10:44:15;95.25;;;53.13;;
22606;SDS011;11470;20.968;105.834;2024-03-22T10:49:20;170.10;;;87.57;;
22606;SDS011;11470;20.968;105.834;2024-03-22T10:54:25;123.10;;;68.53;;
22606;SDS011;11470;20.968;105.834;2024-03-22T10:59:34;160.60;;;88.78;;
22606;SDS011;11470;20.968;105.834;2024-03-22T11:04:38;110.38;;;60.70;;
22606;SDS011;11470;20.968;105.834;2024-03-22T11:09:42;121.03;;;61.85;;
22606;SDS011;11470;20.968;105.834;2024-03-22T11:14:58;104.25;;;58.58;;
22606;SDS011;11470;20.968;105.834;2024-03-22T11:20:02;107.47;;;57.72;;
22606;SDS011;11470;20.968;105.834;2024-03-22T11:25:10;104.40;;;56.50;;
22606;SDS011;11470;20.968;105.834;2024-03-22T11:30:17;66.90;;;41.78;;
22606;SDS011;11470;20.968;105.834;2024-03-22T11:35:21;81.70;;;45.30;;
22606;SDS011;11470;20.968;105.834;2024-03-22T11:40:27;83.75;;;45.28;;
22606;SDS011;11470;20.968;105.834;2024-03-22T11:45:32;115.60;;;66.40;;
22606;SDS011;11470;20.968;105.834;2024-03-22T11:50:39;91.90;;;50.92;;
22606;SDS011;11470;20.968;105.834;2024-03-22T11:55:43;79.32;;;40.45;;
22606;SDS011;11470;20.968;105.834;2024-03-22T12:00:46;97.63;;;52.00;;
22606;SDS011;11470;20.968;105.834;2024-03-22T12:05:52;86.47;;;45.10;;
22606;SDS011;11470;20.968;105.834;2024-03-22T12:10:58;92.35;;;48.63;;
22606;SDS011;11470;20.968;105.834;2024-03-22T12:16:03;108.63;;;50.83;;
22606;SDS011;11470;20.968;105.834;2024-03-22T12:21:07;108.93;;;50.43;;
22606;SDS011;11470;20.968;105.834;2024-03-22T12:26:11;78.35;;;37.28;;
22606;SDS011;11470;20.968;105.834;2024-03-22T12:31:16;76.55;;;40.63;;
22606;SDS011;11470;20.968;105.834;2024-03-22T12:36:21;74.60;;;41.30;;
22606;SDS011;11470;20.968;105.834;2024-03-22T12:41:29;79.43;;;42.05;;
22606;SDS011;11470;20.968;105.834;2024-03-22T12:46:35;79.35;;;37.60;;
22606;SDS011;11470;20.968;105.834;2024-03-22T12:51:38;59.63;;;30.88;;
22606;SDS011;11470;20.968;105.834;2024-03-22T12:56:43;93.95;;;48.65;;
22606;SDS011;11470;20.968;105.834;2024-03-22T13:01:47;83.38;;;45.72;;
22606;SDS011;11470;20.968;105.834;2024-03-22T13:06:52;75.65;;;38.97;;
22606;SDS011;11470;20.968;105.834;2024-03-22T13:11:55;70.18;;;37.50;;
22606;SDS011;11470;20.968;105.834;2024-03-22T13:16:59;100.20;;;49.80;;
22606;SDS011;11470;20.968;105.834;2024-03-22T13:22:02;91.75;;;50.45;;
22606;SDS011;11470;20.968;105.834;2024-03-22T13:27:07;75.50;;;39.92;;
22606;SDS011;11470;20.968;105.834;2024-03-22T13:32:11;73.60;;;40.65;;
22606;SDS011;11470;20.968;105.834;2024-03-22T13:37:15;104.07;;;49.92;;
22606;SDS011;11470;20.968;105.834;2024-03-22T13:42:19;106.47;;;49.90;;
22606;SDS011;11470;20.968;105.834;2024-03-22T13:47:24;84.55;;;43.22;;
22606;SDS011;11470;20.968;105.834;2024-03-22T13:52:32;108.85;;;55.17;;
22606;SDS011;11470;20.968;105.834;2024-03-22T13:57:36;98.50;;;49.63;;
22606;SDS011;11470;20.968;105.834;2024-03-22T14:02:40;91.78;;;47.63;;
22606;SDS011;11470;20.968;105.834;2024-03-22T14:12:49;98.78;;;48.75;;
22606;SDS011;11470;20.968;105.834;2024-03-22T14:17:53;92.28;;;46.05;;
22606;SDS011;11470;20.968;105.834;2024-03-22T14:22:57;67.63;;;39.08;;
22606;SDS011;11470;20.968;105.834;2024-03-22T14:28:01;110.03;;;50.67;;
22606;SDS011;11470;20.968;105.834;2024-03-22T14:33:04;103.25;;;50.50;;
22606;SDS011;11470;20.968;105.834;2024-03-22T14:38:09;86.03;;;44.28;;
22606;SDS011;11470;20.968;105.834;2024-03-22T14:43:13;100.35;;;50.28;;
22606;SDS011;11470;20.968;105.834;2024-03-22T14:48:17;67.28;;;39.92;;
22606;SDS011;11470;20.968;105.834;2024-03-22T14:53:21;100.57;;;51.17;;
22606;SDS011;11470;20.968;105.834;2024-03-22T14:58:25;76.75;;;42.17;;
22606;SDS011;11470;20.968;105.834;2024-03-22T15:03:29;71.68;;;40.45;;
22606;SDS011;11470;20.968;105.834;2024-03-22T15:08:34;62.73;;;34.30;;
22606;SDS011;11470;20.968;105.834;2024-03-22T15:13:38;66.18;;;39.08;;
22606;SDS011;11470;20.968;105.834;2024-03-22T15:18:41;74.72;;;35.75;;
22606;SDS011;11470;20.968;105.834;2024-03-22T15:23:45;88.38;;;45.58;;
22606;SDS011;11470;20.968;105.834;2024-03-22T15:28:49;131.82;;;59.08;;
22606;SDS011;11470;20.968;105.834;2024-03-22T15:33:52;77.15;;;43.20;;
22606;SDS011;11470;20.968;105.834;2024-03-22T15:38:57;98.22;;;50.00;;
22606;SDS011;11470;20.968;105.834;2024-03-22T15:44:00;67.22;;;39.47;;
22606;SDS011;11470;20.968;105.834;2024-03-22T15:49:03;73.70;;;35.25;;
22606;SDS011;11470;20.968;105.834;2024-03-22T15:54:07;75.40;;;40.60;;
22606;SDS011;11470;20.968;105.834;2024-03-22T15:59:12;77.13;;;40.63;;
22606;SDS011;11470;20.968;105.834;2024-03-22T16:04:16;74.40;;;34.60;;
22606;SDS011;11470;20.968;105.834;2024-03-22T16:09:19;84.10;;;44.92;;
22606;SDS011;11470;20.968;105.834;2024-03-22T16:14:23;73.55;;;38.25;;
22606;SDS011;11470;20.968;105.834;2024-03-22T16:19:26;62.47;;;28.52;;
22606;SDS011;11470;20.968;105.834;2024-03-22T16:24:30;96.95;;;48.40;;
22606;SDS011;11470;20.968;105.834;2024-03-22T16:29:34;88.13;;;46.88;;
22606;SDS011;11470;20.968;105.834;2024-03-22T16:34:37;68.53;;;36.42;;
22606;SDS011;11470;20.968;105.834;2024-03-22T16:39:41;89.30;;;45.70;;
22606;SDS011;11470;20.968;105.834;2024-03-22T16:44:44;78.05;;;42.80;;
22606;SDS011;11470;20.968;105.834;2024-03-22T16:49:47;91.32;;;48.70;;
22606;SDS011;11470;20.968;105.834;2024-03-22T16:54:51;99.32;;;46.90;;
22606;SDS011;11470;20.968;105.834;2024-03-22T16:59:54;78.80;;;45.53;;
22606;SDS011;11470;20.968;105.834;2024-03-22T17:04:58;86.28;;;47.03;;
22606;SDS011;11470;20.968;105.834;2024-03-22T17:10:01;103.50;;;55.60;;
22606;SDS011;11470;20.968;105.834;2024-03-22T17:15:05;77.75;;;42.33;;
22606;SDS011;11470;20.968;105.834;2024-03-22T17:20:09;72.50;;;41.25;;
22606;SDS011;11470;20.968;105.834;2024-03-22T17:25:20;71.65;;;37.75;;
22606;SDS011;11470;20.968;105.834;2024-03-22T17:30:24;66.45;;;39.63;;
22606;SDS011;11470;20.968;105.834;2024-03-22T17:35:28;74.15;;;38.85;;
22606;SDS011;11470;20.968;105.834;2024-03-22T17:40:32;63.20;;;39.13;;
22606;SDS011;11470;20.968;105.834;2024-03-22T17:45:36;74.43;;;42.08;;
22606;SDS011;11470;20.968;105.834;2024-03-22T17:50:40;59.03;;;30.95;;
22606;SDS011;11470;20.968;105.834;2024-03-22T17:55:43;61.45;;;32.08;;
22606;SDS011;11470;20.968;105.834;2024-03-22T18:00:53;69.65;;;37.78;;
22606;SDS011;11470;20.968;105.834;2024-03-22T18:05:58;63.00;;;37.50;;
22606;SDS011;11470;20.968;105.834;2024-03-22T18:11:05;62.30;;;34.42;;
22606;SDS011;11470;20.968;105.834;2024-03-22T18:16:09;64.82;;;35.08;;
22606;SDS011;11470;20.968;105.834;2024-03-22T18:21:13;63.28;;;35.42;;
22606;SDS011;11470;20.968;105.834;2024-03-22T18:26:19;62.00;;;35.08;;
22606;SDS011;11470;20.968;105.834;2024-03-22T18:31:23;73.43;;;37.28;;
22606;SDS011;11470;20.968;105.834;2024-03-22T18:36:26;85.38;;;41.10;;
22606;SDS011;11470;20.968;105.834;2024-03-22T18:41:30;62.65;;;36.80;;
22606;SDS011;11470;20.968;105.834;2024-03-22T18:46:34;78.25;;;42.72;;
22606;SDS011;11470;20.968;105.834;2024-03-22T18:51:38;90.25;;;46.80;;
22606;SDS011;11470;20.968;105.834;2024-03-22T18:56:41;80.82;;;44.13;;
22606;SDS011;11470;20.968;105.834;2024-03-22T19:01:45;68.68;;;39.92;;
22606;SDS011;11470;20.968;105.834;2024-03-22T19:06:50;69.53;;;40.60;;
22606;SDS011;11470;20.968;105.834;2024-03-22T19:11:54;65.28;;;37.00;;
22606;SDS011;11470;20.968;105.834;2024-03-22T19:16:58;101.55;;;55.80;;
22606;SDS011;11470;20.968;105.834;2024-03-22T19:22:01;79.07;;;44.20;;
22606;SDS011;11470;20.968;105.834;2024-03-22T19:27:05;80.10;;;47.53;;
22606;SDS011;11470;20.968;105.834;2024-03-22T19:32:09;73.13;;;43.20;;
22606;SDS011;11470;20.968;105.834;2024-03-22T19:37:12;103.32;;;57.28;;
22606;SDS011;11470;20.968;105.834;2024-03-22T19:42:17;85.43;;;45.60;;
22606;SDS011;11470;20.968;105.834;2024-03-22T19:47:21;56.03;;;33.15;;
22606;SDS011;11470;20.968;105.834;2024-03-22T19:52:24;110.53;;;58.85;;
22606;SDS011;11470;20.968;105.834;2024-03-22T19:57:28;78.10;;;43.35;;
22606;SDS011;11470;20.968;105.834;2024-03-22T20:02:32;68.65;;;38.15;;
22606;SDS011;11470;20.968;105.834;2024-03-22T20:07:36;90.80;;;48.67;;
22606;SDS011;11470;20.968;105.834;2024-03-22T20:12:49;67.97;;;31.38;;
22606;SDS011;11470;20.968;105.834;2024-03-22T20:17:53;60.10;;;34.10;;
22606;SDS011;11470;20.968;105.834;2024-03-22T20:22:56;66.18;;;37.35;;
22606;SDS011;11470;20.968;105.834;2024-03-22T20:28:06;56.88;;;28.98;;
22606;SDS011;11470;20.968;105.834;2024-03-22T20:33:09;62.33;;;35.85;;
22606;SDS011;11470;20.968;105.834;2024-03-22T20:38:13;70.20;;;35.70;;
